Time;durP1;ratioP1;P1;durP2;ratioP2;P2;SDS_P1;SDS_P2;PMS_P1;PMS_P2;Temp;Humidity;BMP_temperature;BMP_pressure;BME280_temperature;BME280_humidity;BME280_pressure;Samples;Min_cycle;Max_cycle;Signal;HPM_P1;HPM_P2
2021/10/19 00:00:13;;;;;;;31.95;20.35;;;;;;;;;;5093564;28;20108;-76
2021/10/19 00:02:40;;;;;;;27.65;19.38;;;;;;;;;;5093348;28;20553;-77
2021/10/19 00:05:06;;;;;;;27.58;17.83;;;;;;;;;;5093327;28;20074;-76
2021/10/19 00:07:31;;;;;;;33.38;19.38;;;;;;;;;;5093675;28;20043;-76
2021/10/19 00:09:57;;;;;;;37.05;20.20;;;;;;;;;;5077634;28;20041;-77
2021/10/19 00:12:22;;;;;;;34.80;20.83;;;;;;;;;;5073228;28;20033;-76
2021/10/19 00:14:48;;;;;;;36.10;21.92;;;;;;;;;;5073114;28;20036;-77
2021/10/19 00:17:13;;;;;;;32.00;21.27;;;;;;;;;;5073099;28;20035;-76
2021/10/19 00:19:39;;;;;;;38.15;20.50;;;;;;;;;;5072860;28;20045;-76
2021/10/19 00:22:05;;;;;;;33.22;20.55;;;;;;;;;;5072718;28;20040;-77
2021/10/19 00:24:31;;;;;;;36.65;20.40;;;;;;;;;;5072816;28;20043;-76
2021/10/19 00:26:56;;;;;;;34.35;21.55;;;;;;;;;;5073072;28;20042;-77
2021/10/19 00:29:22;;;;;;;36.45;22.63;;;;;;;;;;5073180;28;20078;-77
2021/10/19 00:31:47;;;;;;;38.05;21.50;;;;;;;;;;5072692;28;20048;-76
2021/10/19 00:34:13;;;;;;;40.20;21.92;;;;;;;;;;5073153;28;20033;-77
2021/10/19 00:36:38;;;;;;;31.55;20.42;;;;;;;;;;5073209;28;20029;-76
2021/10/19 00:39:04;;;;;;;37.65;23.10;;;;;;;;;;5079192;28;20035;-77
2021/10/19 00:41:29;;;;;;;35.50;21.67;;;;;;;;;;5092825;28;20040;-76
2021/10/19 00:43:55;;;;;;;45.40;24.95;;;;;;;;;;5090820;28;20071;-77
2021/10/19 00:46:20;;;;;;;45.33;24.42;;;;;;;;;;5092969;28;20495;-77
2021/10/19 00:48:46;;;;;;;37.70;23.38;;;;;;;;;;5093217;28;20047;-76
2021/10/19 00:51:14;;;;;;;41.35;22.30;;;;;;;;;;5092705;28;20040;-76
2021/10/19 00:53:40;;;;;;;36.00;23.38;;;;;;;;;;5093187;28;20070;-77
2021/10/19 00:56:07;;;;;;;37.55;22.52;;;;;;;;;;5093044;28;20461;-77
2021/10/19 00:58:33;;;;;;;34.70;22.02;;;;;;;;;;5092822;28;20093;-76
2021/10/19 01:00:58;;;;;;;34.30;22.13;;;;;;;;;;5092385;28;20488;-77
2021/10/19 01:03:24;;;;;;;36.13;21.55;;;;;;;;;;5092897;28;20118;-77
2021/10/19 01:05:49;;;;;;;32.25;21.30;;;;;;;;;;5092897;28;20109;-76
2021/10/19 01:08:15;;;;;;;43.00;22.13;;;;;;;;;;5093003;28;20044;-77
2021/10/19 01:10:43;;;;;;;36.83;22.52;;;;;;;;;;5092545;28;20032;-76
2021/10/19 01:13:09;;;;;;;35.58;22.52;;;;;;;;;;5092557;28;20042;-76
2021/10/19 01:15:34;;;;;;;36.60;21.95;;;;;;;;;;5092731;28;20110;-76
2021/10/19 01:18:00;;;;;;;41.88;24.55;;;;;;;;;;5092870;28;20120;-77
2021/10/19 01:20:28;;;;;;;47.22;23.00;;;;;;;;;;5092495;28;20040;-76
2021/10/19 01:22:55;;;;;;;38.35;23.10;;;;;;;;;;5092629;28;20034;-76
2021/10/19 01:25:24;;;;;;;37.58;23.27;;;;;;;;;;5091981;28;20032;-77
2021/10/19 01:27:53;;;;;;;37.55;22.85;;;;;;;;;;5094770;28;20032;-76
2021/10/19 01:30:19;;;;;;;37.60;22.48;;;;;;;;;;5096082;28;20474;-76
2021/10/19 01:32:45;;;;;;;40.08;22.20;;;;;;;;;;5096122;28;20035;-76
2021/10/19 01:35:11;;;;;;;31.08;19.92;;;;;;;;;;5096623;28;20047;-76
2021/10/19 01:37:37;;;;;;;34.35;20.42;;;;;;;;;;5096166;28;20039;-76
2021/10/19 01:40:14;;;;;;;34.47;21.73;;;;;;;;;;5095920;28;20073;-76
2021/10/19 01:42:41;;;;;;;32.38;20.95;;;;;;;;;;5093858;28;20062;-76
2021/10/19 01:45:15;;;;;;;31.58;21.30;;;;;;;;;;5095717;28;20028;-76
2021/10/19 01:47:42;;;;;;;36.95;21.05;;;;;;;;;;5096353;28;20044;-76
2021/10/19 01:50:09;;;;;;;30.90;20.25;;;;;;;;;;5095691;28;20042;-76
2021/10/19 01:52:35;;;;;;;33.95;21.17;;;;;;;;;;5096007;28;20449;-77
2021/10/19 01:55:02;;;;;;;32.50;21.48;;;;;;;;;;5095582;28;20123;-76
2021/10/19 01:57:27;;;;;;;33.95;20.83;;;;;;;;;;5095741;28;20050;-77
2021/10/19 01:59:53;;;;;;;30.20;20.67;;;;;;;;;;5095410;28;20553;-76
2021/10/19 02:02:18;;;;;;;33.63;21.73;;;;;;;;;;5095947;28;20036;-76
2021/10/19 02:04:44;;;;;;;34.38;21.08;;;;;;;;;;5095673;28;20040;-77
2021/10/19 02:07:09;;;;;;;30.77;20.02;;;;;;;;;;5095776;28;20119;-77
2021/10/19 02:09:34;;;;;;;32.13;21.05;;;;;;;;;;5095437;28;20118;-76
2021/10/19 02:12:00;;;;;;;30.38;20.52;;;;;;;;;;5095433;28;20410;-77
2021/10/19 02:14:25;;;;;;;33.47;20.83;;;;;;;;;;5094422;28;20028;-77
2021/10/19 02:16:50;;;;;;;33.63;20.45;;;;;;;;;;5095798;28;20036;-76
2021/10/19 02:19:17;;;;;;;32.03;20.30;;;;;;;;;;5095706;28;20044;-76
2021/10/19 02:21:43;;;;;;;37.00;22.98;;;;;;;;;;5095455;28;20040;-76
2021/10/19 02:24:09;;;;;;;38.70;23.42;;;;;;;;;;5094549;28;20043;-78
2021/10/19 02:26:35;;;;;;;31.15;20.20;;;;;;;;;;5095609;28;20039;-76
2021/10/19 02:29:00;;;;;;;29.15;19.70;;;;;;;;;;5095129;28;20123;-76
2021/10/19 02:31:26;;;;;;;31.35;19.83;;;;;;;;;;5094070;28;20078;-76
2021/10/19 02:33:51;;;;;;;27.50;18.75;;;;;;;;;;5095308;28;20111;-76
2021/10/19 02:36:16;;;;;;;29.45;19.13;;;;;;;;;;5093998;28;20051;-76
2021/10/19 02:38:42;;;;;;;29.77;20.25;;;;;;;;;;5093928;28;20063;-76
2021/10/19 02:41:07;;;;;;;31.85;17.95;;;;;;;;;;5094543;28;20128;-76
2021/10/19 02:43:32;;;;;;;29.92;18.17;;;;;;;;;;5095134;28;20039;-76
2021/10/19 02:45:58;;;;;;;29.63;19.10;;;;;;;;;;5095151;28;20036;-76
2021/10/19 02:48:23;;;;;;;30.55;19.60;;;;;;;;;;5094869;28;20115;-76
2021/10/19 02:50:48;;;;;;;34.58;19.40;;;;;;;;;;5094628;28;20126;-76
2021/10/19 02:53:14;;;;;;;35.50;20.35;;;;;;;;;;5094968;28;20036;-76
2021/10/19 02:55:39;;;;;;;34.63;20.02;;;;;;;;;;5094269;28;20085;-76
2021/10/19 02:58:04;;;;;;;31.25;19.52;;;;;;;;;;5093709;28;20062;-75
2021/10/19 03:00:30;;;;;;;28.92;18.92;;;;;;;;;;5094337;28;20039;-74
2021/10/19 03:02:56;;;;;;;31.42;20.45;;;;;;;;;;5094671;28;20130;-75
2021/10/19 03:05:21;;;;;;;35.05;20.77;;;;;;;;;;5094129;28;20059;-75
2021/10/19 03:07:47;;;;;;;32.05;20.77;;;;;;;;;;5094458;28;20056;-75
2021/10/19 03:10:14;;;;;;;38.45;21.20;;;;;;;;;;5094317;28;20424;-75
2021/10/19 03:12:40;;;;;;;29.75;20.40;;;;;;;;;;5094611;28;20389;-75
2021/10/19 03:15:05;;;;;;;35.20;21.20;;;;;;;;;;5091828;28;20036;-75
2021/10/19 03:17:31;;;;;;;34.10;20.42;;;;;;;;;;5094667;28;20119;-76
2021/10/19 03:19:56;;;;;;;38.08;21.33;;;;;;;;;;5094409;28;20046;-76
2021/10/19 03:22:21;;;;;;;38.08;19.75;;;;;;;;;;5094206;28;20036;-75
2021/10/19 03:24:47;;;;;;;41.60;21.85;;;;;;;;;;5094171;28;20048;-75
2021/10/19 03:27:13;;;;;;;35.50;19.95;;;;;;;;;;5094133;28;20131;-75
2021/10/19 03:29:38;;;;;;;36.25;20.65;;;;;;;;;;5093737;28;20393;-75
2021/10/19 03:32:04;;;;;;;33.72;20.55;;;;;;;;;;5094249;28;20508;-76
2021/10/19 03:34:29;;;;;;;29.58;18.25;;;;;;;;;;5093017;28;20107;-76
2021/10/19 03:36:55;;;;;;;34.33;19.42;;;;;;;;;;5094366;28;20032;-76
2021/10/19 03:39:20;;;;;;;29.83;19.85;;;;;;;;;;5093548;28;20052;-76
2021/10/19 03:41:45;;;;;;;30.10;18.67;;;;;;;;;;5092794;28;20070;-76
2021/10/19 03:44:11;;;;;;;33.13;19.42;;;;;;;;;;5092965;28;20056;-75
2021/10/19 03:46:36;;;;;;;30.00;19.75;;;;;;;;;;5093682;28;20043;-75
2021/10/19 03:49:01;;;;;;;31.17;20.27;;;;;;;;;;5093798;28;20043;-75
2021/10/19 03:51:27;;;;;;;30.52;20.20;;;;;;;;;;5093708;28;20040;-76
2021/10/19 03:53:52;;;;;;;28.42;18.58;;;;;;;;;;5092560;28;20020;-76
2021/10/19 03:56:17;;;;;;;32.03;20.30;;;;;;;;;;5093654;28;20123;-76
2021/10/19 03:58:43;;;;;;;37.97;22.13;;;;;;;;;;5093759;28;20047;-76
2021/10/19 04:01:08;;;;;;;34.95;20.98;;;;;;;;;;5093511;28;20165;-75
2021/10/19 04:03:33;;;;;;;31.27;20.20;;;;;;;;;;5092495;28;20050;-76
2021/10/19 04:05:59;;;;;;;38.42;20.95;;;;;;;;;;5093771;28;20035;-76
2021/10/19 04:08:24;;;;;;;36.33;20.98;;;;;;;;;;5093092;28;20421;-75
2021/10/19 04:10:50;;;;;;;42.13;22.48;;;;;;;;;;5093391;28;20047;-75
2021/10/19 04:13:15;;;;;;;44.97;23.08;;;;;;;;;;5093612;28;20036;-76
2021/10/19 04:15:40;;;;;;;33.10;21.02;;;;;;;;;;5093528;28;20126;-76
2021/10/19 04:18:06;;;;;;;34.20;20.58;;;;;;;;;;5092804;28;20054;-75
2021/10/19 04:20:31;;;;;;;33.72;20.17;;;;;;;;;;5092186;28;20381;-76
2021/10/19 04:22:57;;;;;;;34.55;20.23;;;;;;;;;;5090940;28;20096;-76
2021/10/19 04:25:22;;;;;;;27.60;18.15;;;;;;;;;;5092092;28;20046;-76
2021/10/19 04:27:47;;;;;;;36.72;21.27;;;;;;;;;;5093384;28;20054;-76
2021/10/19 04:30:13;;;;;;;34.05;21.25;;;;;;;;;;5093233;28;20086;-76
2021/10/19 04:32:38;;;;;;;31.83;19.67;;;;;;;;;;5093154;28;20039;-76
2021/10/19 04:35:04;;;;;;;26.48;17.60;;;;;;;;;;5093258;28;20028;-76
2021/10/19 04:37:30;;;;;;;27.15;16.88;;;;;;;;;;5093101;28;20493;-76
2021/10/19 04:39:55;;;;;;;28.58;18.40;;;;;;;;;;5091617;28;20470;-77
2021/10/19 04:42:20;;;;;;;31.88;20.42;;;;;;;;;;5093441;28;20039;-76
2021/10/19 04:44:48;;;;;;;35.67;20.52;;;;;;;;;;5093197;28;20512;-76
2021/10/19 04:47:14;;;;;;;37.17;21.17;;;;;;;;;;5091836;28;20481;-76
2021/10/19 04:49:40;;;;;;;39.88;22.48;;;;;;;;;;5093274;28;20032;-76
2021/10/19 04:52:06;;;;;;;36.67;21.40;;;;;;;;;;5093072;28;20035;-76
2021/10/19 04:54:31;;;;;;;40.03;22.98;;;;;;;;;;5092651;28;20097;-75
2021/10/19 04:56:57;;;;;;;39.45;23.38;;;;;;;;;;5093121;28;20127;-76
2021/10/19 04:59:22;;;;;;;35.10;22.08;;;;;;;;;;5092703;28;20123;-76
2021/10/19 05:01:47;;;;;;;40.03;22.45;;;;;;;;;;5093288;28;20036;-76
2021/10/19 05:04:15;;;;;;;38.53;24.48;;;;;;;;;;5097023;28;20063;-76
2021/10/19 05:06:41;;;;;;;43.15;22.95;;;;;;;;;;5095347;28;20040;-76
2021/10/19 05:09:10;;;;;;;46.30;27.17;;;;;;;;;;5096737;28;20043;-76
2021/10/19 05:11:36;;;;;;;37.50;22.33;;;;;;;;;;5096765;28;20031;-75
2021/10/19 05:14:01;;;;;;;42.47;23.83;;;;;;;;;;5095657;28;20040;-75
2021/10/19 05:16:26;;;;;;;46.75;25.15;;;;;;;;;;5096619;28;20060;-76
2021/10/19 05:18:52;;;;;;;39.38;22.63;;;;;;;;;;5095490;28;20058;-76
2021/10/19 05:21:17;;;;;;;38.55;21.77;;;;;;;;;;5096241;28;20114;-76
2021/10/19 05:23:43;;;;;;;40.10;22.73;;;;;;;;;;5096777;28;20040;-75
2021/10/19 05:26:09;;;;;;;36.60;22.42;;;;;;;;;;5096637;28;20032;-76
2021/10/19 05:28:35;;;;;;;37.53;21.90;;;;;;;;;;5096727;28;20036;-76
2021/10/19 05:31:00;;;;;;;37.35;21.55;;;;;;;;;;5096186;28;20032;-75
2021/10/19 05:33:26;;;;;;;36.92;22.00;;;;;;;;;;5096453;28;20028;-76
2021/10/19 05:35:51;;;;;;;36.40;22.33;;;;;;;;;;5096342;28;20477;-76
2021/10/19 05:38:17;;;;;;;35.22;22.23;;;;;;;;;;5096308;28;20058;-75
2021/10/19 05:40:42;;;;;;;36.88;22.02;;;;;;;;;;5096012;28;20110;-75
2021/10/19 05:43:08;;;;;;;42.13;23.45;;;;;;;;;;5096083;28;20101;-76
2021/10/19 05:45:33;;;;;;;36.60;22.40;;;;;;;;;;5095154;28;20051;-75
2021/10/19 05:47:58;;;;;;;32.05;19.30;;;;;;;;;;5096368;28;20050;-75
2021/10/19 05:50:24;;;;;;;33.70;20.08;;;;;;;;;;5095380;28;20079;-75
2021/10/19 05:52:49;;;;;;;28.35;18.70;;;;;;;;;;5095774;28;20028;-75
2021/10/19 05:55:14;;;;;;;33.08;20.60;;;;;;;;;;5096349;28;20382;-75
2021/10/19 05:57:40;;;;;;;35.20;21.48;;;;;;;;;;5096045;28;20051;-76
2021/10/19 06:00:07;;;;;;;35.20;21.13;;;;;;;;;;5096154;28;20068;-78
2021/10/19 06:02:38;;;;;;;34.58;21.17;;;;;;;;;;5096983;28;20382;-75
2021/10/19 06:05:04;;;;;;;33.67;20.88;;;;;;;;;;5096045;28;20028;-77
2021/10/19 06:07:29;;;;;;;36.08;21.58;;;;;;;;;;5096861;28;20458;-77
2021/10/19 06:09:55;;;;;;;39.28;22.25;;;;;;;;;;5096415;28;20028;-77
2021/10/19 06:12:20;;;;;;;33.75;21.10;;;;;;;;;;5096585;28;20501;-77
2021/10/19 06:14:46;;;;;;;36.08;21.17;;;;;;;;;;5096328;28;20047;-77
2021/10/19 06:17:11;;;;;;;37.70;21.75;;;;;;;;;;5097566;28;20039;-77
2021/10/19 06:19:37;;;;;;;34.95;22.38;;;;;;;;;;5097470;28;20035;-77
2021/10/19 06:22:03;;;;;;;39.53;22.13;;;;;;;;;;5097761;28;20036;-77
2021/10/19 06:24:28;;;;;;;44.33;22.65;;;;;;;;;;5094251;28;20040;-77
2021/10/19 06:26:53;;;;;;;49.05;26.35;;;;;;;;;;5096417;28;20027;-77
2021/10/19 06:29:19;;;;;;;37.00;23.23;;;;;;;;;;5097007;28;20036;-77
2021/10/19 06:31:44;;;;;;;40.47;23.30;;;;;;;;;;5094108;28;20450;-77
2021/10/19 06:34:10;;;;;;;35.45;21.20;;;;;;;;;;5095218;28;20028;-76
2021/10/19 06:36:36;;;;;;;36.10;20.90;;;;;;;;;;5095307;28;20547;-77
2021/10/19 06:39:02;;;;;;;30.52;21.58;;;;;;;;;;5094633;28;20030;-77
2021/10/19 06:41:28;;;;;;;39.10;23.08;;;;;;;;;;5094392;28;20040;-77
2021/10/19 06:43:53;;;;;;;31.23;20.17;;;;;;;;;;5096128;28;20043;-77
2021/10/19 06:46:19;;;;;;;36.58;23.38;;;;;;;;;;5096573;28;20405;-77
2021/10/19 06:48:45;;;;;;;40.38;24.08;;;;;;;;;;5095420;28;20057;-77
2021/10/19 06:51:10;;;;;;;35.88;23.05;;;;;;;;;;5095080;28;20048;-77
2021/10/19 06:53:36;;;;;;;41.67;23.10;;;;;;;;;;5094634;28;20028;-77
2021/10/19 06:56:02;;;;;;;42.05;21.33;;;;;;;;;;5095046;28;20123;-77
2021/10/19 06:58:28;;;;;;;35.15;20.65;;;;;;;;;;5094117;28;20392;-77
2021/10/19 07:00:54;;;;;;;34.80;21.40;;;;;;;;;;5095390;28;20035;-77
2021/10/19 07:03:20;;;;;;;31.50;21.25;;;;;;;;;;5094440;28;20036;-75
2021/10/19 07:05:45;;;;;;;36.63;22.17;;;;;;;;;;5094779;28;20048;-77
2021/10/19 07:08:11;;;;;;;38.40;21.70;;;;;;;;;;5094232;28;20043;-75
2021/10/19 07:10:37;;;;;;;38.42;22.65;;;;;;;;;;5095921;28;20041;-80
2021/10/19 07:13:03;;;;;;;35.42;21.17;;;;;;;;;;5096924;28;20070;-78
2021/10/19 07:15:34;;;;;;;34.17;20.15;;;;;;;;;;5095604;28;20115;-77
2021/10/19 07:18:06;;;;;;;35.00;21.45;;;;;;;;;;5085969;28;20376;-77
2021/10/19 07:20:33;;;;;;;31.02;20.30;;;;;;;;;;5091835;28;20493;-77
2021/10/19 07:22:59;;;;;;;33.30;20.67;;;;;;;;;;5095761;28;20373;-79
2021/10/19 07:25:28;;;;;;;29.42;19.52;;;;;;;;;;5097692;28;20046;-82
2021/10/19 07:27:57;;;;;;;37.08;21.77;;;;;;;;;;5099570;28;20496;-79
2021/10/19 07:30:22;;;;;;;36.67;22.13;;;;;;;;;;5101962;28;20104;-78
2021/10/19 07:32:48;;;;;;;32.90;19.67;;;;;;;;;;5100877;28;20055;-79
2021/10/19 07:35:16;;;;;;;29.00;19.92;;;;;;;;;;5084154;28;20024;-77
2021/10/19 07:37:42;;;;;;;29.35;21.17;;;;;;;;;;5085943;28;20032;-77
2021/10/19 07:40:09;;;;;;;28.85;18.73;;;;;;;;;;5092816;28;20555;-77
2021/10/19 07:42:37;;;;;;;34.22;21.00;;;;;;;;;;5100807;28;20032;-78
2021/10/19 07:45:08;;;;;;;32.90;20.75;;;;;;;;;;5103306;28;20042;-78
2021/10/19 07:47:38;;;;;;;29.77;20.08;;;;;;;;;;5100081;28;20044;-77
2021/10/19 07:50:04;;;;;;;43.65;20.88;;;;;;;;;;5101531;28;20036;-78
2021/10/19 07:52:29;;;;;;;34.08;19.85;;;;;;;;;;5099730;28;20036;-78
2021/10/19 07:54:55;;;;;;;30.42;21.15;;;;;;;;;;5100145;28;20079;-78
2021/10/19 07:57:21;;;;;;;29.50;19.15;;;;;;;;;;5101601;28;20035;-79
2021/10/19 07:59:46;;;;;;;31.90;19.63;;;;;;;;;;5101635;28;20381;-81
2021/10/19 08:02:11;;;;;;;30.77;19.17;;;;;;;;;;5114725;28;20039;-82
2021/10/19 08:04:37;;;;;;;33.53;19.02;;;;;;;;;;5117700;28;20488;-79
2021/10/19 08:07:04;;;;;;;31.98;18.50;;;;;;;;;;5117498;28;20493;-78
2021/10/19 08:09:29;;;;;;;29.27;18.52;;;;;;;;;;5123781;28;20027;-77
2021/10/19 08:11:55;;;;;;;29.77;17.88;;;;;;;;;;5119558;28;20035;-77
2021/10/19 08:14:20;;;;;;;29.08;19.52;;;;;;;;;;5118136;28;20031;-78
2021/10/19 08:16:45;;;;;;;34.80;20.20;;;;;;;;;;5121083;28;20035;-77
2021/10/19 08:19:11;;;;;;;29.33;19.17;;;;;;;;;;5119036;28;20114;-77
2021/10/19 08:21:36;;;;;;;31.83;19.15;;;;;;;;;;5118310;28;20184;-79
2021/10/19 08:24:02;;;;;;;25.98;18.38;;;;;;;;;;5106036;28;20040;-78
2021/10/19 08:26:30;;;;;;;30.15;19.15;;;;;;;;;;5097592;28;20027;-79
2021/10/19 08:29:01;;;;;;;33.95;19.85;;;;;;;;;;5101244;28;20040;-79
2021/10/19 08:31:26;;;;;;;31.08;20.02;;;;;;;;;;5101043;28;20062;-79
2021/10/19 08:33:53;;;;;;;27.70;19.55;;;;;;;;;;5099754;28;20036;-78
2021/10/19 08:36:19;;;;;;;27.02;19.10;;;;;;;;;;5096240;28;20065;-77
2021/10/19 08:38:48;;;;;;;27.60;19.02;;;;;;;;;;5099970;28;20169;-77
2021/10/19 08:41:16;;;;;;;29.17;18.23;;;;;;;;;;5101594;28;20443;-78
2021/10/19 08:43:42;;;;;;;31.98;17.30;;;;;;;;;;5100498;28;20036;-78
2021/10/19 08:46:09;;;;;;;27.80;18.40;;;;;;;;;;5103435;28;20040;-78
2021/10/19 08:48:35;;;;;;;29.95;19.20;;;;;;;;;;5104674;28;20038;-78
2021/10/19 08:51:01;;;;;;;27.05;17.85;;;;;;;;;;5102763;28;20040;-78
2021/10/19 08:53:26;;;;;;;30.48;18.67;;;;;;;;;;5099716;28;20028;-79
2021/10/19 08:55:52;;;;;;;26.52;17.92;;;;;;;;;;5105264;28;20044;-78
2021/10/19 08:58:18;;;;;;;26.65;17.55;;;;;;;;;;5106366;28;20039;-78
2021/10/19 09:00:43;;;;;;;20.38;15.02;;;;;;;;;;5098662;28;20036;-77
2021/10/19 09:03:09;;;;;;;21.30;16.13;;;;;;;;;;5100622;28;20040;-78
2021/10/19 09:05:35;;;;;;;22.08;15.38;;;;;;;;;;5096931;28;20062;-77
2021/10/19 09:08:07;;;;;;;24.25;16.42;;;;;;;;;;5097743;28;20043;-77
2021/10/19 09:10:33;;;;;;;19.35;14.05;;;;;;;;;;5097809;28;20126;-78
2021/10/19 09:13:01;;;;;;;17.00;12.40;;;;;;;;;;5088181;28;20086;-77
2021/10/19 09:15:29;;;;;;;15.35;11.52;;;;;;;;;;5095741;28;20048;-77
2021/10/19 09:18:00;;;;;;;14.82;10.95;;;;;;;;;;5096685;28;20474;-77
2021/10/19 09:20:26;;;;;;;16.35;11.93;;;;;;;;;;5096817;28;20032;-77
2021/10/19 09:23:01;;;;;;;19.80;11.20;;;;;;;;;;5097531;28;20097;-77
2021/10/19 09:25:34;;;;;;;20.20;10.77;;;;;;;;;;5096954;28;20378;-77
2021/10/19 09:28:02;;;;;;;13.77;10.27;;;;;;;;;;5078754;28;20071;-77
2021/10/19 09:30:39;;;;;;;13.75;9.82;;;;;;;;;;5095284;28;20193;-77
2021/10/19 09:33:06;;;;;;;11.70;8.88;;;;;;;;;;5096641;28;20025;-75
2021/10/19 09:35:35;;;;;;;10.95;8.55;;;;;;;;;;5096151;28;20027;-76
2021/10/19 09:38:05;;;;;;;10.18;7.85;;;;;;;;;;5096338;28;20461;-75
2021/10/19 09:40:32;;;;;;;10.63;8.07;;;;;;;;;;5096216;28;20520;-76
2021/10/19 09:42:59;;;;;;;11.65;7.93;;;;;;;;;;5096333;28;20040;-75
2021/10/19 09:45:25;;;;;;;11.88;9.52;;;;;;;;;;5095971;28;20036;-75
2021/10/19 09:47:51;;;;;;;11.07;8.60;;;;;;;;;;5094172;28;20036;-75
2021/10/19 09:50:16;;;;;;;16.00;8.75;;;;;;;;;;5095967;28;20040;-75
2021/10/19 09:52:46;;;;;;;11.13;7.80;;;;;;;;;;5096067;28;20122;-75
2021/10/19 09:55:12;;;;;;;12.50;8.48;;;;;;;;;;5096163;28;20382;-75
2021/10/19 09:57:38;;;;;;;14.05;8.55;;;;;;;;;;5095765;28;20050;-74
2021/10/19 10:00:06;;;;;;;12.77;9.07;;;;;;;;;;5092897;28;20044;-75
2021/10/19 10:02:37;;;;;;;10.93;7.32;;;;;;;;;;5094983;28;20047;-75
2021/10/19 10:05:05;;;;;;;8.77;7.63;;;;;;;;;;5093976;28;20093;-75
2021/10/19 10:07:34;;;;;;;10.27;7.30;;;;;;;;;;5095213;28;20028;-75
2021/10/19 10:10:02;;;;;;;9.95;7.45;;;;;;;;;;5095619;28;20042;-76
2021/10/19 10:12:32;;;;;;;8.65;6.65;;;;;;;;;;5095626;28;20028;-76
2021/10/19 10:14:58;;;;;;;8.07;6.40;;;;;;;;;;5096240;28;20104;-75
2021/10/19 10:17:24;;;;;;;9.27;6.93;;;;;;;;;;5097791;28;20032;-77
2021/10/19 10:19:51;;;;;;;8.48;6.88;;;;;;;;;;5096766;28;20028;-79
2021/10/19 10:22:28;;;;;;;8.63;6.47;;;;;;;;;;5097216;28;20110;-77
2021/10/19 10:25:13;;;;;;;8.00;5.80;;;;;;;;;;5075018;28;20029;-76
2021/10/19 10:27:39;;;;;;;8.57;6.00;;;;;;;;;;5060173;28;20036;-78
2021/10/19 10:30:24;;;;;;;8.93;5.95;;;;;;;;;;5076738;28;20028;-78
2021/10/19 10:32:50;;;;;;;10.48;6.05;;;;;;;;;;5077390;28;20044;-80
2021/10/19 10:35:19;;;;;;;8.43;5.65;;;;;;;;;;5082361;28;20043;-77
2021/10/19 10:37:47;;;;;;;6.70;5.05;;;;;;;;;;5095547;28;20036;-77
2021/10/19 10:40:35;;;;;;;7.00;5.57;;;;;;;;;;5095030;28;20044;-78
2021/10/19 10:43:20;;;;;;;6.07;5.30;;;;;;;;;;5097868;28;20497;-79
2021/10/19 10:45:47;;;;;;;8.98;5.28;;;;;;;;;;5094985;28;20032;-76
2021/10/19 10:48:16;;;;;;;7.32;5.68;;;;;;;;;;5094904;28;20501;-75
2021/10/19 10:50:41;;;;;;;11.75;6.22;;;;;;;;;;5093373;28;20054;-75
2021/10/19 10:53:11;;;;;;;9.18;7.07;;;;;;;;;;5095200;28;20470;-75
2021/10/19 10:55:48;;;;;;;6.90;4.65;;;;;;;;;;5094763;28;20031;-75
2021/10/19 10:58:27;;;;;;;6.22;4.70;;;;;;;;;;5094802;28;20090;-75
2021/10/19 11:00:53;;;;;;;5.97;4.95;;;;;;;;;;5093767;28;20433;-75
2021/10/19 11:03:19;;;;;;;6.13;5.10;;;;;;;;;;5094661;28;20119;-75
2021/10/19 11:05:56;;;;;;;7.30;5.18;;;;;;;;;;5093193;28;20055;-75
2021/10/19 11:08:22;;;;;;;7.60;5.70;;;;;;;;;;5094666;28;20093;-75
2021/10/19 11:11:06;;;;;;;6.32;5.28;;;;;;;;;;5093351;28;20031;-75
2021/10/19 11:13:45;;;;;;;10.23;5.47;;;;;;;;;;5094501;28;20036;-75
2021/10/19 11:16:11;;;;;;;9.82;6.22;;;;;;;;;;5094594;28;20082;-76
2021/10/19 11:18:36;;;;;;;7.70;5.70;;;;;;;;;;5094197;28;20032;-74
2021/10/19 11:21:02;;;;;;;8.43;6.25;;;;;;;;;;5094197;28;20498;-74
2021/10/19 11:23:27;;;;;;;9.90;6.10;;;;;;;;;;5092911;28;20040;-74
2021/10/19 11:25:56;;;;;;;7.03;5.78;;;;;;;;;;5094182;28;20096;-74
2021/10/19 11:28:22;;;;;;;7.43;5.90;;;;;;;;;;5094255;28;20422;-74
2021/10/19 11:30:47;;;;;;;8.52;6.30;;;;;;;;;;5094232;28;20119;-74
2021/10/19 11:33:13;;;;;;;8.23;6.20;;;;;;;;;;5093676;28;20028;-74
2021/10/19 11:35:39;;;;;;;7.30;5.60;;;;;;;;;;5094217;28;20135;-74
2021/10/19 11:38:04;;;;;;;7.82;6.25;;;;;;;;;;5092405;28;20028;-74
2021/10/19 11:40:30;;;;;;;7.53;5.88;;;;;;;;;;5092462;28;20497;-74
2021/10/19 11:42:57;;;;;;;7.60;5.35;;;;;;;;;;5094097;28;20401;-74
2021/10/19 11:45:24;;;;;;;6.70;4.93;;;;;;;;;;5093216;28;20112;-74
2021/10/19 11:47:54;;;;;;;7.15;5.05;;;;;;;;;;5093653;28;20040;-74
2021/10/19 11:50:26;;;;;;;6.65;4.68;;;;;;;;;;5093639;28;20496;-74
2021/10/19 11:52:52;;;;;;;5.10;4.45;;;;;;;;;;5093897;28;20544;-74
2021/10/19 11:55:18;;;;;;;7.43;4.95;;;;;;;;;;5092598;28;20131;-74
2021/10/19 11:57:48;;;;;;;6.90;4.88;;;;;;;;;;5092685;28;20172;-74
2021/10/19 12:00:14;;;;;;;6.13;4.65;;;;;;;;;;5093596;28;20036;-74
2021/10/19 12:02:56;;;;;;;6.00;4.55;;;;;;;;;;5093556;28;20043;-74
2021/10/19 12:05:23;;;;;;;5.68;4.15;;;;;;;;;;5093462;28;20120;-74
2021/10/19 12:07:51;;;;;;;4.30;3.65;;;;;;;;;;5093175;28;20691;-74
2021/10/19 12:10:22;;;;;;;5.43;4.35;;;;;;;;;;5093176;28;20027;-74
2021/10/19 12:12:51;;;;;;;5.57;3.45;;;;;;;;;;5093217;28;20401;-74
2021/10/19 12:15:22;;;;;;;5.18;4.13;;;;;;;;;;5092356;28;20128;-74
2021/10/19 12:18:02;;;;;;;5.20;4.20;;;;;;;;;;5092963;28;20547;-74
2021/10/19 12:20:33;;;;;;;3.65;3.10;;;;;;;;;;5092674;28;20039;-75
2021/10/19 12:23:04;;;;;;;4.28;3.38;;;;;;;;;;5092112;28;20507;-73
2021/10/19 12:25:42;;;;;;;4.82;3.97;;;;;;;;;;5091580;28;20127;-74
2021/10/19 12:28:08;;;;;;;8.57;4.15;;;;;;;;;;5093217;28;20358;-73
2021/10/19 12:30:41;;;;;;;4.93;3.67;;;;;;;;;;5090482;28;20035;-74
2021/10/19 12:33:14;;;;;;;5.90;3.80;;;;;;;;;;5077045;28;20056;-76
2021/10/19 12:35:48;;;;;;;4.50;3.42;;;;;;;;;;5092581;28;20050;-75
2021/10/19 12:38:14;;;;;;;7.38;3.80;;;;;;;;;;5093097;28;20107;-75
2021/10/19 12:40:45;;;;;;;3.83;3.30;;;;;;;;;;5090771;28;20185;-75
2021/10/19 12:43:10;;;;;;;5.35;3.33;;;;;;;;;;5092082;28;20056;-74
2021/10/19 12:45:36;;;;;;;2.95;2.65;;;;;;;;;;5092022;28;20030;-75
2021/10/19 12:48:03;;;;;;;3.75;3.20;;;;;;;;;;5092883;28;20038;-74
2021/10/19 12:50:29;;;;;;;4.18;3.40;;;;;;;;;;5091899;28;20036;-75
2021/10/19 12:52:54;;;;;;;4.20;3.28;;;;;;;;;;5092435;28;20114;-73
2021/10/19 12:55:20;;;;;;;3.75;3.35;;;;;;;;;;5092827;28;20115;-73
2021/10/19 12:57:45;;;;;;;3.88;2.63;;;;;;;;;;5093244;28;20123;-73
2021/10/19 13:00:11;;;;;;;7.05;3.47;;;;;;;;;;5091539;28;20128;-73
2021/10/19 13:02:36;;;;;;;3.88;3.28;;;;;;;;;;5091529;28;20038;-73
2021/10/19 13:05:02;;;;;;;4.22;3.10;;;;;;;;;;5093088;28;20059;-73
2021/10/19 13:07:27;;;;;;;3.53;3.20;;;;;;;;;;5088726;28;20028;-74
2021/10/19 13:09:54;;;;;;;4.07;2.92;;;;;;;;;;5092706;28;20531;-74
2021/10/19 13:12:19;;;;;;;4.05;3.10;;;;;;;;;;5092534;28;20044;-73
2021/10/19 13:14:45;;;;;;;4.22;2.40;;;;;;;;;;5079613;28;20032;-73
2021/10/19 13:17:10;;;;;;;3.03;2.72;;;;;;;;;;5076550;28;20085;-74
2021/10/19 13:19:36;;;;;;;3.20;2.53;;;;;;;;;;5093059;28;20084;-74
2021/10/19 13:22:01;;;;;;;3.30;2.55;;;;;;;;;;5092903;28;20044;-74
2021/10/19 13:24:27;;;;;;;3.60;2.80;;;;;;;;;;5089302;28;20051;-74
2021/10/19 13:26:52;;;;;;;6.65;2.42;;;;;;;;;;5085089;28;20415;-74
2021/10/19 13:29:18;;;;;;;2.83;2.33;;;;;;;;;;5086335;28;20058;-74
2021/10/19 13:31:43;;;;;;;2.35;2.00;;;;;;;;;;5085440;28;20044;-73
2021/10/19 13:34:09;;;;;;;3.15;2.30;;;;;;;;;;5084691;28;20500;-74
2021/10/19 13:36:34;;;;;;;4.35;2.13;;;;;;;;;;5087311;28;20024;-73
2021/10/19 13:39:00;;;;;;;2.65;2.20;;;;;;;;;;5083480;28;20116;-73
2021/10/19 13:41:25;;;;;;;5.45;2.35;;;;;;;;;;5085013;28;20089;-73
2021/10/19 13:43:51;;;;;;;3.20;2.42;;;;;;;;;;5085618;28;20063;-74
2021/10/19 13:46:17;;;;;;;4.63;2.17;;;;;;;;;;5085325;28;20044;-73
2021/10/19 13:48:42;;;;;;;3.60;2.17;;;;;;;;;;5085496;28;20036;-74
2021/10/19 13:51:07;;;;;;;6.00;2.75;;;;;;;;;;5086808;28;20036;-73
2021/10/19 13:53:33;;;;;;;6.85;2.97;;;;;;;;;;5084383;28;20038;-73
2021/10/19 13:55:59;;;;;;;2.30;2.10;;;;;;;;;;5085792;28;20089;-74
2021/10/19 13:58:25;;;;;;;4.03;2.17;;;;;;;;;;5086456;28;20108;-74
2021/10/19 14:00:50;;;;;;;2.47;2.17;;;;;;;;;;5084349;28;20033;-74
2021/10/19 14:03:16;;;;;;;3.40;2.25;;;;;;;;;;5085078;28;20537;-74
2021/10/19 14:05:41;;;;;;;2.63;2.20;;;;;;;;;;5084417;28;20115;-73
2021/10/19 14:08:10;;;;;;;2.83;2.28;;;;;;;;;;5084384;28;20067;-74
2021/10/19 14:10:37;;;;;;;2.88;2.17;;;;;;;;;;5083577;28;20043;-74
2021/10/19 14:13:03;;;;;;;2.78;2.13;;;;;;;;;;5085408;28;20054;-73
2021/10/19 14:15:31;;;;;;;4.50;2.53;;;;;;;;;;5084099;28;20044;-74
2021/10/19 14:17:56;;;;;;;3.08;2.45;;;;;;;;;;5085602;28;20112;-74
2021/10/19 14:20:22;;;;;;;2.92;2.40;;;;;;;;;;5075388;28;20518;-73
2021/10/19 14:22:47;;;;;;;4.25;2.40;;;;;;;;;;5075561;28;20119;-73